Time;durP1;ratioP1;P1;durP2;ratioP2;P2;SDS_P1;SDS_P2;PMS_P1;PMS_P2;Temp;Humidity;BMP_temperature;BMP_pressure;BME280_temperature;BME280_humidity;BME280_pressure;Samples;Min_cycle;Max_cycle;Signal;HPM_P1;HPM_P2
2022/11/06 00:01:32;;;;;;;7.70;2.58;;;;;;;12.27;63.08;101422.72;5166825;27;20053;-58
2022/11/06 00:04:00;;;;;;;7.57;2.13;;;;;;;12.27;63.21;101422.72;5167382;27;20119;-58
2022/11/06 00:09:15;;;;;;;4.38;2.17;;;;;;;12.27;62.78;101433.50;5162065;27;20050;-58
2022/11/06 00:11:43;;;;;;;6.93;2.78;;;;;;;12.26;62.98;101442.63;5156048;27;20151;-58
2022/11/06 00:14:11;;;;;;;7.18;2.58;;;;;;;12.26;62.85;101437.22;5160144;27;20396;-58
2022/11/06 00:16:42;;;;;;;6.38;2.08;;;;;;;12.25;62.81;101438.28;5164950;27;20046;-57
2022/11/06 00:19:10;;;;;;;4.07;2.00;;;;;;;12.24;62.72;101425.84;5158898;27;20061;-58
2022/11/06 00:21:38;;;;;;;6.00;2.03;;;;;;;12.22;62.92;101426.06;5165558;27;20048;-58
2022/11/06 00:24:08;;;;;;;7.75;2.10;;;;;;;12.14;63.02;101410.16;5156097;27;20047;-58
2022/11/06 00:26:36;;;;;;;9.00;2.25;;;;;;;12.22;63.07;101411.75;5165765;27;20299;-59
2022/11/06 00:29:05;;;;;;;9.95;2.42;;;;;;;12.21;62.73;101416.31;5168046;27;20475;-61
2022/11/06 00:31:35;;;;;;;4.35;2.20;;;;;;;12.20;62.83;101414.69;5165120;27;20053;-58
2022/11/06 00:34:06;;;;;;;5.57;2.47;;;;;;;12.22;62.67;101417.16;5164790;27;20122;-58
2022/11/06 00:36:34;;;;;;;5.25;2.20;;;;;;;12.19;62.86;101417.59;5165045;27;20039;-59
2022/11/06 00:39:03;;;;;;;5.50;2.58;;;;;;;12.19;62.96;101409.50;5167375;27;20057;-58
2022/11/06 00:41:31;;;;;;;7.53;2.40;;;;;;;12.17;62.80;101407.03;5168162;27;20046;-58
2022/11/06 00:44:00;;;;;;;6.93;2.35;;;;;;;12.17;62.73;101404.34;5168682;27;20043;-59
2022/11/06 00:46:28;;;;;;;4.13;1.90;;;;;;;12.17;62.91;101407.03;5158192;27;20507;-57
2022/11/06 00:48:56;;;;;;;4.75;1.95;;;;;;;12.17;62.67;101403.50;5152914;27;20039;-58
2022/11/06 00:51:27;;;;;;;10.30;3.20;;;;;;;12.12;62.75;101393.41;5166463;27;20061;-58
2022/11/06 00:53:55;;;;;;;4.25;1.73;;;;;;;12.13;62.60;101392.38;5158363;27;20055;-58
2022/11/06 00:56:24;;;;;;;5.72;2.08;;;;;;;12.15;62.89;101386.75;5165579;27;20038;-59
2022/11/06 00:58:52;;;;;;;6.38;2.03;;;;;;;12.16;62.67;101396.47;5162231;27;20397;-59
2022/11/06 01:01:22;;;;;;;6.22;1.85;;;;;;;12.16;62.52;101401.84;5165935;27;20438;-58
2022/11/06 01:03:53;;;;;;;7.20;2.05;;;;;;;12.14;62.68;101403.94;5164550;27;20053;-59
2022/11/06 01:06:22;;;;;;;4.38;1.88;;;;;;;12.14;62.72;101402.09;5165269;27;20564;-58
2022/11/06 01:08:52;;;;;;;6.60;2.20;;;;;;;12.13;62.69;101399.63;5164270;27;20053;-58
2022/11/06 01:11:22;;;;;;;5.20;1.88;;;;;;;12.13;62.77;101399.63;5165571;27;20053;-58
2022/11/06 01:13:51;;;;;;;6.32;1.80;;;;;;;12.09;62.72;101393.84;5165733;27;20057;-58
2022/11/06 01:16:20;;;;;;;6.05;1.73;;;;;;;12.11;62.91;101396.34;5163635;27;20046;-58
2022/11/06 01:18:48;;;;;;;7.80;2.97;;;;;;;12.08;62.57;101392.22;5166057;27;20050;-59
2022/11/06 01:21:18;;;;;;;6.88;2.80;;;;;;;12.05;62.55;101376.47;5159718;27;20101;-58
2022/11/06 01:23:47;;;;;;;4.18;1.73;;;;;;;12.05;62.99;101384.56;5157577;27;20536;-58
2022/11/06 01:26:16;;;;;;;5.03;2.05;;;;;;;12.10;62.76;101382.03;5164440;27;20043;-58
2022/11/06 01:29:05;;;;;;;6.18;2.47;;;;;;;12.09;62.69;101385.78;5166433;27;20043;-59
2022/11/06 01:31:34;;;;;;;4.93;1.80;;;;;;;12.09;62.51;101379.56;5164581;27;20053;-58
2022/11/06 01:34:02;;;;;;;4.97;2.25;;;;;;;12.09;62.58;101371.47;5167521;27;20046;-58
2022/11/06 01:36:31;;;;;;;9.10;2.20;;;;;;;12.09;62.70;101374.16;5161668;27;20050;-58
2022/11/06 01:39:01;;;;;;;6.60;2.05;;;;;;;12.05;62.80;101369.22;5166761;27;20363;-59
2022/11/06 01:41:32;;;;;;;9.98;2.10;;;;;;;12.09;62.77;101366.09;5161491;27;20053;-58
2022/11/06 01:44:02;;;;;;;5.88;1.75;;;;;;;12.08;62.54;101359.88;5166531;27;20051;-58
2022/11/06 01:46:36;;;;;;;4.97;1.88;;;;;;;12.08;62.59;101361.75;5159429;27;20049;-59
2022/11/06 01:49:08;;;;;;;8.45;2.30;;;;;;;12.06;62.45;101356.56;5165900;27;20145;-58
2022/11/06 01:51:40;;;;;;;5.78;1.88;;;;;;;12.09;62.45;101352.63;5163004;27;20039;-58
2022/11/06 01:54:10;;;;;;;4.45;1.90;;;;;;;12.09;62.67;101366.09;5160791;27;20043;-58
2022/11/06 01:56:41;;;;;;;3.65;1.85;;;;;;;12.09;62.85;101361.53;5159512;27;20054;-58
2022/11/06 01:59:15;;;;;;;6.57;2.15;;;;;;;12.10;62.65;101348.88;5167327;27;20120;-58
2022/11/06 02:01:43;;;;;;;6.20;1.70;;;;;;;12.08;62.65;101351.78;5158223;27;20430;-58
2022/11/06 02:04:15;;;;;;;3.97;1.65;;;;;;;12.08;62.61;101345.56;5155673;27;20051;-58
2022/11/06 02:06:44;;;;;;;4.60;2.25;;;;;;;12.06;62.71;101340.41;5161852;27;20051;-58
2022/11/06 02:09:13;;;;;;;4.82;1.80;;;;;;;12.08;62.52;101335.63;5164521;27;20046;-59
2022/11/06 02:11:45;;;;;;;7.15;2.03;;;;;;;12.08;62.59;101340.19;5163918;27;20058;-58
2022/11/06 02:14:19;;;;;;;5.40;1.77;;;;;;;12.07;62.83;101331.28;5164700;27;20073;-58
2022/11/06 02:16:52;;;;;;;5.80;1.98;;;;;;;12.07;62.66;101333.97;5161500;27;20042;-59
2022/11/06 02:19:57;;;;;;;5.32;1.67;;;;;;;12.06;62.68;101337.72;5156510;27;20096;-59
2022/11/06 02:22:38;;;;;;;6.15;1.88;;;;;;;12.05;63.07;101331.50;5152092;27;20069;-59
2022/11/06 02:25:28;;;;;;;4.13;1.73;;;;;;;12.04;62.67;101327.16;5161970;27;20074;-59
2022/11/06 02:28:02;;;;;;;4.15;1.60;;;;;;;12.04;62.81;101318.25;5151207;27;20047;-59
2022/11/06 02:30:32;;;;;;;6.82;1.90;;;;;;;12.04;62.97;101324.47;5151691;27;20047;-59
2022/11/06 02:33:03;;;;;;;7.30;2.55;;;;;;;12.03;62.92;101316.59;5161818;27;20047;-60
2022/11/06 02:35:36;;;;;;;5.70;1.65;;;;;;;12.03;62.75;101319.28;5159783;27;20043;-57
2022/11/06 02:38:07;;;;;;;12.45;2.20;;;;;;;12.01;62.85;101316.00;5155997;27;20068;-57
2022/11/06 02:40:40;;;;;;;4.95;1.65;;;;;;;12.04;62.71;101315.56;5162563;27;20054;-57
2022/11/06 02:43:10;;;;;;;7.32;2.00;;;;;;;12.04;62.91;101308.31;5161009;27;20093;-57
2022/11/06 02:45:41;;;;;;;6.30;1.80;;;;;;;12.03;62.67;101303.97;5158821;27;20049;-58
2022/11/06 02:48:12;;;;;;;2.88;1.42;;;;;;;12.04;62.76;101318.25;5164392;27;20042;-58
2022/11/06 02:50:45;;;;;;;6.55;1.90;;;;;;;12.03;62.79;101305.81;5162301;27;20051;-58
2022/11/06 02:53:18;;;;;;;5.07;1.70;;;;;;;12.03;62.77;101305.81;5162848;27;20403;-58
2022/11/06 02:55:49;;;;;;;6.22;1.83;;;;;;;12.02;63.02;101313.09;5158403;27;20038;-59
2022/11/06 02:58:24;;;;;;;4.78;1.88;;;;;;;12.03;62.71;101313.91;5164428;27;20047;-59
2022/11/06 03:00:56;;;;;;;6.82;2.05;;;;;;;12.02;62.65;101307.69;5161883;27;20043;-58
2022/11/06 03:03:26;;;;;;;4.18;1.70;;;;;;;12.02;62.72;101320.34;5163066;27;20043;-58
2022/11/06 03:05:58;;;;;;;5.75;3.20;;;;;;;12.01;62.79;101316.81;5149696;27;20057;-59
2022/11/06 03:08:31;;;;;;;6.13;2.45;;;;;;;12.03;62.74;101327.38;5162018;27;20058;-59
2022/11/06 03:11:14;;;;;;;6.45;1.88;;;;;;;12.02;63.09;101342.72;5158454;27;20506;-59
2022/11/06 03:13:53;;;;;;;4.10;1.67;;;;;;;11.99;62.92;101336.94;5160589;27;20070;-58
2022/11/06 03:16:29;;;;;;;5.32;1.90;;;;;;;12.00;62.93;101322.44;5164681;27;20050;-58
2022/11/06 03:19:03;;;;;;;6.03;2.20;;;;;;;12.01;62.84;101313.31;5161141;27;20066;-58
2022/11/06 03:21:42;;;;;;;4.47;1.77;;;;;;;12.02;62.79;101313.09;5161668;27;20050;-58
2022/11/06 03:24:15;;;;;;;4.45;2.05;;;;;;;12.03;62.90;101309.34;5158955;27;20051;-58
2022/11/06 03:26:47;;;;;;;8.55;1.90;;;;;;;12.02;62.85;101305.00;5162654;27;20526;-59
2022/11/06 03:29:20;;;;;;;6.10;1.75;;;;;;;12.02;63.03;101305.00;5161504;27;20047;-58
2022/11/06 03:31:52;;;;;;;4.47;1.63;;;;;;;12.01;62.98;101295.28;5164689;27;20046;-59
2022/11/06 03:34:27;;;;;;;5.85;2.03;;;;;;;12.01;62.90;101289.06;5165976;27;20077;-59
2022/11/06 03:37:02;;;;;;;3.42;1.67;;;;;;;11.99;63.03;101291.97;5160920;27;20043;-58
2022/11/06 03:39:34;;;;;;;5.22;1.70;;;;;;;11.99;62.84;101283.06;5166162;27;20054;-58
2022/11/06 03:42:06;;;;;;;4.90;1.80;;;;;;;12.00;63.10;101290.09;5162752;27;20045;-58
2022/11/06 03:44:40;;;;;;;7.13;1.90;;;;;;;11.92;62.86;101271.53;5159123;27;20049;-58
2022/11/06 03:47:13;;;;;;;7.88;2.10;;;;;;;12.00;63.15;101276.63;5164286;27;20046;-59
2022/11/06 03:49:45;;;;;;;6.60;1.60;;;;;;;11.99;63.44;101267.72;5165872;27;20138;-58
2022/11/06 03:52:19;;;;;;;4.30;2.35;;;;;;;11.98;63.00;101260.69;5165089;27;20062;-58
2022/11/06 03:54:52;;;;;;;5.20;1.92;;;;;;;11.99;62.96;101261.53;5156638;27;20126;-58
2022/11/06 03:57:23;;;;;;;5.57;1.80;;;;;;;11.99;63.04;101251.56;5165014;27;20047;-59
2022/11/06 03:59:57;;;;;;;6.50;2.47;;;;;;;11.99;62.84;101256.13;5148680;27;20053;-58
2022/11/06 04:02:29;;;;;;;7.15;1.90;;;;;;;11.99;63.26;101248.88;5159713;27;20053;-59
2022/11/06 04:05:00;;;;;;;4.95;1.70;;;;;;;12.00;63.30;101247.81;5163784;27;20047;-58
2022/11/06 04:07:33;;;;;;;2.90;1.58;;;;;;;12.00;63.04;101247.00;5154301;27;20054;-59
2022/11/06 04:15:47;;;;;;;8.52;2.22;;;;;;;11.98;63.27;101233.75;5160794;27;20049;-58
2022/11/06 04:18:18;;;;;;;6.28;1.52;;;;;;;11.95;62.89;101220.72;5167131;27;20046;-58
2022/11/06 04:26:34;;;;;;;4.35;1.83;;;;;;;11.99;62.96;101213.84;5161575;27;20049;-58
2022/11/06 04:26:46;;;;;;;5.28;1.50;;;;;;;11.99;63.06;101196.88;5185379;27;20045;-58
2022/11/06 04:29:24;;;;;;;4.35;1.67;;;;;;;11.99;63.33;101204.94;5164762;27;20047;-58
2022/11/06 04:32:03;;;;;;;7.03;2.22;;;;;;;11.99;63.29;101199.56;5168487;27;20051;-58
2022/11/06 04:34:39;;;;;;;3.63;1.90;;;;;;;11.98;63.32;101195.22;5164512;27;20043;-58
2022/11/06 04:37:10;;;;;;;7.53;2.38;;;;;;;11.98;63.45;101212.22;5148533;27;20047;-57
2022/11/06 04:39:51;;;;;;;6.00;1.52;;;;;;;11.98;63.20;101206.00;5167916;27;20057;-59
2022/11/06 04:42:28;;;;;;;5.28;1.80;;;;;;;12.01;63.12;101197.47;5163114;27;20073;-59
2022/11/06 04:45:02;;;;;;;4.75;1.65;;;;;;;12.03;63.05;101190.00;5164115;27;20046;-58
2022/11/06 04:47:32;;;;;;;4.53;1.80;;;;;;;12.02;63.12;101182.97;5163457;27;20043;-57
2022/11/06 04:50:01;;;;;;;3.70;1.45;;;;;;;12.00;63.21;101188.56;5167224;27;20042;-58
2022/11/06 04:52:29;;;;;;;9.30;1.80;;;;;;;12.00;63.34;101185.88;5168209;27;20057;-58
2022/11/06 04:54:58;;;;;;;5.35;1.70;;;;;;;11.95;63.41;101184.88;5164247;27;20483;-58
2022/11/06 04:57:27;;;;;;;4.57;2.00;;;;;;;11.95;63.31;101192.97;5164217;27;20054;-57
2022/11/06 04:59:56;;;;;;;9.80;2.28;;;;;;;11.97;63.21;101188.19;5162121;27;20050;-58
2022/11/06 05:02:24;;;;;;;6.60;1.63;;;;;;;11.95;63.40;101187.59;5161610;27;20057;-58
2022/11/06 05:04:53;;;;;;;4.70;1.60;;;;;;;11.93;63.42;101189.69;5155253;27;20142;-59
2022/11/06 05:07:20;;;;;;;5.38;2.20;;;;;;;11.94;63.49;101189.47;5162483;27;20043;-58
2022/11/06 05:09:48;;;;;;;4.28;1.80;;;;;;;11.93;63.57;101184.28;5162389;27;20061;-59
2022/11/06 05:12:16;;;;;;;4.25;1.67;;;;;;;11.92;63.51;101185.34;5168478;27;20127;-58
2022/11/06 05:14:44;;;;;;;4.78;1.70;;;;;;;11.93;63.65;101186.97;5164048;27;20050;-58
2022/11/06 05:17:11;;;;;;;4.50;1.50;;;;;;;11.94;63.46;101183.25;5163387;27;20038;-58
2022/11/06 05:19:39;;;;;;;5.63;2.65;;;;;;;11.93;63.34;101185.13;5165214;27;20050;-58
2022/11/06 05:24:54;;;;;;;;;;;;;;;11.92;63.52;101170.00;5159064;27;20059;-57
2022/11/06 05:27:21;;;;;;;6.57;1.52;;;;;;;11.91;63.50;101168.34;5166614;27;19919;-58
2022/11/06 05:29:49;;;;;;;5.53;1.60;;;;;;;11.92;63.53;101171.88;5167840;27;20047;-58
2022/11/06 05:32:17;;;;;;;3.40;1.48;;;;;;;11.91;63.50;101157.56;5152938;27;20047;-58
2022/11/06 05:34:45;;;;;;;4.32;1.42;;;;;;;11.90;63.49;101163.19;5164663;27;20058;-59
2022/11/06 05:37:14;;;;;;;7.35;1.75;;;;;;;11.95;63.38;101166.88;5154007;27;20070;-58
2022/11/06 05:39:42;;;;;;;2.65;1.55;;;;;;;11.94;63.42;101159.81;5167908;27;20055;-59
2022/11/06 05:42:10;;;;;;;2.70;1.80;;;;;;;11.92;63.26;101159.22;5167791;27;20043;-58
2022/11/06 05:44:37;;;;;;;6.57;1.85;;;;;;;11.91;63.38;101162.97;5155519;27;20047;-59
2022/11/06 05:47:05;;;;;;;6.10;1.60;;;;;;;11.93;63.37;101160.88;5167069;27;20054;-59
2022/11/06 05:49:33;;;;;;;3.35;1.40;;;;;;;11.92;63.59;101159.22;5159087;27;20058;-59
2022/11/06 05:52:00;;;;;;;4.57;1.88;;;;;;;11.93;63.42;101160.88;5146932;27;20047;-58
2022/11/06 05:54:30;;;;;;;5.32;1.83;;;;;;;11.94;63.25;101157.13;5161150;27;20053;-58
2022/11/06 05:56:57;;;;;;;5.03;2.03;;;;;;;11.94;63.71;101149.06;5166155;27;20059;-58
2022/11/06 05:59:25;;;;;;;4.32;1.38;;;;;;;11.94;63.59;101146.34;5165656;27;20052;-57
2022/11/06 06:01:53;;;;;;;5.68;1.52;;;;;;;11.93;63.45;101149.28;4800615;27;10000218;-58
2022/11/06 06:04:20;;;;;;;4.53;1.60;;;;;;;11.92;63.73;101153.03;5159852;27;20070;-59
2022/11/06 06:06:48;;;;;;;5.28;1.70;;;;;;;11.91;63.65;101151.38;5156979;27;20047;-58
2022/11/06 06:09:16;;;;;;;3.67;1.70;;;;;;;11.92;63.30;101148.44;5161846;27;20069;-56
2022/11/06 06:11:45;;;;;;;5.63;1.48;;;;;;;11.92;63.28;101150.31;5151139;27;20047;-59
2022/11/06 06:14:12;;;;;;;4.63;1.48;;;;;;;11.92;63.40;101145.75;5154865;27;20046;-58
2022/11/06 06:16:40;;;;;;;5.45;1.63;;;;;;;11.92;63.63;101139.56;5147146;27;20054;-59
2022/11/06 06:19:08;;;;;;;5.35;1.65;;;;;;;12.14;63.43;101134.50;5154660;27;20050;-58
2022/11/06 06:21:36;;;;;;;4.80;1.50;;;;;;;12.08;63.48;101144.34;5157860;27;20057;-58
2022/11/06 06:24:04;;;;;;;2.63;1.20;;;;;;;12.06;63.88;101130.28;5151688;27;20057;-58
2022/11/06 06:26:31;;;;;;;3.67;1.65;;;;;;;12.18;64.34;101130.31;5158977;27;20045;-57
2022/11/06 06:29:01;;;;;;;5.30;1.58;;;;;;;12.13;63.09;101132.91;5149868;27;20502;-59
2022/11/06 06:31:29;;;;;;;3.97;1.52;;;;;;;12.09;63.55;101126.31;5160435;27;20053;-59
2022/11/06 06:33:57;;;;;;;4.75;1.63;;;;;;;12.08;63.82;101135.44;5155775;27;20146;-59
2022/11/06 06:36:25;;;;;;;4.80;2.05;;;;;;;12.05;63.63;101142.09;5154820;27;20049;-59
2022/11/06 06:38:52;;;;;;;5.93;2.05;;;;;;;12.04;63.82;101146.66;5159388;27;20047;-59
2022/11/06 06:41:20;;;;;;;7.75;1.85;;;;;;;12.03;63.48;101136.94;5161227;27;20050;-59
2022/11/06 06:43:49;;;;;;;3.40;1.45;;;;;;;12.01;63.50;101140.91;5161245;27;20039;-59
2022/11/06 06:46:18;;;;;;;4.07;1.50;;;;;;;12.01;63.89;101147.13;5155292;27;20109;-59
2022/11/06 06:48:46;;;;;;;7.68;2.00;;;;;;;12.03;63.36;101149.59;5157617;27;20652;-59
2022/11/06 06:51:13;;;;;;;7.10;1.90;;;;;;;12.04;63.61;101153.94;5157191;27;20055;-59
2022/11/06 06:53:47;;;;;;;4.22;1.67;;;;;;;12.05;63.94;101150.19;5153714;27;20047;-59
2022/11/06 06:56:15;;;;;;;5.15;1.67;;;;;;;12.08;63.66;101147.03;5160472;27;20054;-59
2022/11/06 06:58:43;;;;;;;6.32;1.40;;;;;;;12.22;64.66;101131.50;5162130;27;20050;-59
2022/11/06 07:01:11;;;;;;;5.10;1.58;;;;;;;12.32;64.88;101131.81;5152384;27;20451;-59
2022/11/06 07:03:40;;;;;;;2.97;1.70;;;;;;;12.45;62.68;101131.63;5161088;27;20066;-60
2022/11/06 07:06:08;;;;;;;4.15;1.50;;;;;;;12.24;63.71;101130.25;5158022;27;20531;-59
2022/11/06 07:08:36;;;;;;;4.85;1.48;;;;;;;12.42;64.23;101134.78;5162199;27;20170;-64
2022/11/06 07:11:06;;;;;;;6.45;2.03;;;;;;;12.32;64.01;101151.50;5154251;27;20089;-59
2022/11/06 07:13:34;;;;;;;5.25;1.48;;;;;;;12.23;63.27;101139.38;5161611;27;20054;-60
2022/11/06 07:16:03;;;;;;;3.05;1.50;;;;;;;12.14;63.90;101138.03;5158132;27;20072;-57
2022/11/06 07:18:31;;;;;;;3.78;1.50;;;;;;;12.09;63.86;101137.91;5153872;27;20034;-58
2022/11/06 07:21:00;;;;;;;3.38;1.45;;;;;;;12.09;64.01;101142.47;5157579;27;20054;-58
2022/11/06 07:23:28;;;;;;;7.45;1.85;;;;;;;12.09;64.41;101140.59;5162278;27;20047;-58
2022/11/06 07:25:55;;;;;;;6.95;1.73;;;;;;;12.09;64.51;101137.09;5159176;27;20051;-57
2022/11/06 07:28:23;;;;;;;2.63;1.40;;;;;;;12.09;64.46;101140.59;5158537;27;20053;-57
2022/11/06 07:30:51;;;;;;;6.22;1.80;;;;;;;12.11;64.17;101141.19;5162250;27;20050;-58
2022/11/06 07:33:18;;;;;;;3.80;1.58;;;;;;;12.14;63.86;101145.28;5161532;27;20055;-58
2022/11/06 07:35:46;;;;;;;7.63;1.58;;;;;;;12.31;64.54;101149.84;5159679;27;20054;-59
2022/11/06 07:38:15;;;;;;;4.78;1.60;;;;;;;12.33;65.43;101153.13;5158561;27;20057;-57
2022/11/06 07:40:43;;;;;;;5.25;1.50;;;;;;;12.28;63.77;101153.00;5161537;27;20046;-58
2022/11/06 07:43:13;;;;;;;4.90;1.45;;;;;;;12.34;63.85;101143.19;5165024;27;20057;-58
2022/11/06 07:45:40;;;;;;;4.10;1.50;;;;;;;12.48;63.46;101135.75;5163046;27;20103;-57
2022/11/06 07:48:08;;;;;;;6.07;2.63;;;;;;;12.59;62.83;101133.09;5159506;27;20056;-57
2022/11/06 07:50:36;;;;;;;6.03;1.75;;;;;;;12.78;62.50;101135.75;5162976;27;20054;-58
2022/11/06 07:53:04;;;;;;;5.32;1.50;;;;;;;12.93;61.67;101120.78;5166215;27;20397;-58
2022/11/06 07:55:33;;;;;;;2.72;1.27;;;;;;;12.98;61.35;101104.75;5161456;27;20042;-58
2022/11/06 07:58:08;;;;;;;5.15;1.77;;;;;;;12.97;61.34;101107.66;5158562;27;20050;-56
2022/11/06 08:00:36;;;;;;;5.55;1.63;;;;;;;13.01;61.66;101109.69;5160650;27;20057;-59
2022/11/06 08:03:04;;;;;;;4.82;1.50;;;;;;;12.90;62.06;101112.34;5158309;27;20054;-58
2022/11/06 08:05:31;;;;;;;3.88;1.27;;;;;;;12.82;61.87;101118.88;5162542;27;20054;-58
2022/11/06 08:07:59;;;;;;;2.55;1.40;;;;;;;12.76;62.74;101106.31;5162848;27;20047;-58
2022/11/06 08:10:26;;;;;;;4.50;2.30;;;;;;;12.74;63.00;101107.59;5160702;27;20059;-58
2022/11/06 08:12:56;;;;;;;4.47;1.83;;;;;;;12.64;62.68;101108.97;5160208;27;20054;-58
2022/11/06 08:15:23;;;;;;;3.65;1.48;;;;;;;12.57;63.30;101107.44;5160376;27;20047;-57
2022/11/06 08:17:51;;;;;;;3.17;1.63;;;;;;;12.49;63.42;101107.75;5158625;27;20053;-58
2022/11/06 08:20:18;;;;;;;3.90;1.30;;;;;;;12.48;63.29;101106.09;5156810;27;20047;-58
2022/11/06 08:22:46;;;;;;;1.85;1.10;;;;;;;12.50;64.06;101101.31;5162263;27;20054;-58
2022/11/06 08:25:14;;;;;;;4.22;1.50;;;;;;;12.48;63.25;101092.63;5161686;27;20046;-58
2022/11/06 08:27:42;;;;;;;4.28;2.20;;;;;;;12.44;63.78;101092.25;5160746;27;20058;-58
2022/11/06 08:30:12;;;;;;;4.90;1.40;;;;;;;12.46;63.95;101092.84;5163474;27;20053;-59
2022/11/06 08:32:40;;;;;;;3.95;1.30;;;;;;;12.42;63.86;101093.53;5156126;27;20066;-58
2022/11/06 08:35:08;;;;;;;3.35;1.77;;;;;;;12.44;64.02;101092.25;5159928;27;20108;-57
2022/11/06 08:37:36;;;;;;;3.28;1.35;;;;;;;12.40;63.74;101091.06;5154218;27;20047;-59
2022/11/06 08:40:05;;;;;;;9.57;1.67;;;;;;;12.35;64.04;101088.22;5155216;27;20479;-59
2022/11/06 08:42:33;;;;;;;5.63;2.40;;;;;;;12.42;64.39;101080.88;5163940;27;20057;-59
2022/11/06 08:45:00;;;;;;;5.43;2.20;;;;;;;12.37;63.90;101078.03;5155713;27;20065;-58
2022/11/06 08:47:29;;;;;;;7.40;1.48;;;;;;;12.35;64.62;101074.75;5163437;27;20070;-59
2022/11/06 08:49:57;;;;;;;4.13;1.35;;;;;;;12.36;64.18;101071.00;5160528;27;20055;-59
2022/11/06 08:52:25;;;;;;;5.18;1.65;;;;;;;12.36;64.62;101065.63;5157385;27;20058;-58
2022/11/06 08:55:00;;;;;;;4.70;1.63;;;;;;;12.35;64.13;101061.28;5158708;27;20058;-59
2022/11/06 08:57:28;;;;;;;3.17;1.52;;;;;;;12.39;64.81;101060.59;5162628;27;20043;-59
2022/11/06 08:59:55;;;;;;;6.68;1.73;;;;;;;12.38;64.67;101053.56;5159920;27;20078;-59
2022/11/06 09:02:23;;;;;;;3.45;1.55;;;;;;;12.69;64.49;101052.47;5154791;27;20061;-59
2022/11/06 09:04:52;;;;;;;3.95;1.90;;;;;;;12.70;63.83;101045.22;5162181;27;20150;-61
2022/11/06 09:07:20;;;;;;;4.65;1.73;;;;;;;12.58;64.95;101045.19;5166584;27;20054;-59
2022/11/06 09:09:48;;;;;;;5.05;1.80;;;;;;;12.51;64.20;101046.34;5160368;27;20039;-59
2022/11/06 09:12:15;;;;;;;4.88;1.50;;;;;;;12.53;64.87;101034.28;5176100;27;20062;-58
2022/11/06 09:14:44;;;;;;;4.55;1.33;;;;;;;12.50;65.00;101032.03;5147559;27;20088;-58
2022/11/06 09:17:11;;;;;;;10.50;3.00;;;;;;;12.47;65.28;101027.09;5161699;27;20043;-58
2022/11/06 09:19:39;;;;;;;4.80;1.30;;;;;;;12.51;64.97;101030.16;5149316;27;20123;-58
2022/11/06 09:22:08;;;;;;;4.88;1.52;;;;;;;12.55;65.41;101021.38;5168438;27;20051;-58
2022/11/06 09:24:36;;;;;;;4.72;1.30;;;;;;;12.48;64.88;101026.06;5166229;27;20371;-58
2022/11/06 09:27:24;;;;;;;5.63;1.25;;;;;;;12.53;65.47;101007.31;5152339;27;20050;-59
2022/11/06 09:29:52;;;;;;;5.22;1.60;;;;;;;12.50;64.80;100997.00;5160606;27;20047;-58
2022/11/06 09:32:19;;;;;;;4.10;1.60;;;;;;;12.60;64.29;100999.94;5165897;27;20057;-58
2022/11/06 09:34:47;;;;;;;4.53;1.35;;;;;;;12.53;65.14;100995.69;5148523;27;20247;-58
2022/11/06 09:37:16;;;;;;;7.63;1.30;;;;;;;12.50;65.32;100997.00;4806447;27;10000648;-59
2022/11/06 09:39:44;;;;;;;5.13;1.65;;;;;;;12.57;65.24;100996.88;5162601;27;20047;-58
2022/11/06 09:42:23;;;;;;;5.22;1.20;;;;;;;12.53;64.84;100983.03;5161109;27;20050;-58
2022/11/06 09:45:03;;;;;;;5.25;1.30;;;;;;;12.68;65.32;100993.38;5162045;27;20046;-58
2022/11/06 09:47:37;;;;;;;4.55;1.30;;;;;;;12.64;64.99;101003.00;5163536;27;20055;-58
2022/11/06 09:50:11;;;;;;;3.53;1.15;;;;;;;12.63;64.89;100995.97;5161529;27;20043;-59
2022/11/06 09:52:44;;;;;;;6.82;1.98;;;;;;;12.99;64.70;100995.78;5164160;27;20064;-59
2022/11/06 09:55:17;;;;;;;3.75;1.48;;;;;;;12.92;63.78;100995.06;5162685;27;20118;-60
2022/11/06 09:57:50;;;;;;;4.85;1.60;;;;;;;12.77;65.26;100994.69;5147496;27;20070;-59
2022/11/06 10:00:18;;;;;;;3.35;1.35;;;;;;;12.70;64.50;100992.09;5142134;27;20086;-58
2022/11/06 10:02:49;;;;;;;4.63;1.58;;;;;;;12.65;65.26;100991.16;5162793;27;20050;-59
2022/11/06 10:05:24;;;;;;;5.50;2.13;;;;;;;12.74;65.37;101002.44;5151324;27;20161;-59
2022/11/06 10:07:56;;;;;;;5.65;1.23;;;;;;;12.73;65.38;100998.09;5157717;27;20059;-59
2022/11/06 10:10:30;;;;;;;4.03;1.38;;;;;;;12.76;65.62;100989.53;5162235;27;20038;-59
2022/11/06 10:13:17;;;;;;;6.78;1.65;;;;;;;12.95;64.89;100991.06;5142568;27;20055;-60
2022/11/06 10:15:52;;;;;;;4.90;1.40;;;;;;;12.90;64.84;100985.56;5143143;27;20049;-59
2022/11/06 10:18:29;;;;;;;3.25;2.15;;;;;;;12.79;65.21;100979.09;5158991;27;20034;-60
2022/11/06 10:21:04;;;;;;;5.22;1.48;;;;;;;12.78;64.87;100973.94;5162330;27;20057;-60
2022/11/06 10:23:43;;;;;;;2.13;1.27;;;;;;;12.73;64.74;100963.84;5152600;27;20070;-60
2022/11/06 10:26:14;;;;;;;9.05;1.70;;;;;;;12.70;65.63;100972.41;5161106;27;20072;-59
2022/11/06 10:28:58;;;;;;;7.53;1.98;;;;;;;12.72;65.44;100962.22;5153331;27;20042;-60
2022/11/06 10:31:34;;;;;;;3.88;1.58;;;;;;;12.73;65.10;100963.84;5160187;27;20042;-60
2022/11/06 10:34:08;;;;;;;4.50;1.75;;;;;;;12.73;65.52;100952.25;5155259;27;20411;-59
2022/11/06 10:36:42;;;;;;;5.82;1.73;;;;;;;12.72;65.00;100959.50;5147433;27;20046;-60
2022/11/06 10:39:22;;;;;;;4.82;2.05;;;;;;;12.87;65.52;100951.78;5163639;27;20174;-60
2022/11/06 10:41:55;;;;;;;4.22;1.40;;;;;;;12.83;64.90;100949.78;5154671;27;20061;-60
2022/11/06 10:44:27;;;;;;;5.65;1.40;;;;;;;12.80;65.02;100945.69;5159963;27;20047;-60
2022/11/06 10:47:01;;;;;;;5.72;1.33;;;;;;;12.80;65.09;100942.16;5161760;27;20059;-60
2022/11/06 10:49:38;;;;;;;4.75;1.20;;;;;;;12.77;64.82;100935.38;5162522;27;20049;-60
2022/11/06 10:52:28;;;;;;;4.05;1.63;;;;;;;12.76;65.44;100925.63;5153286;27;20043;-60
2022/11/06 10:55:14;;;;;;;7.65;1.85;;;;;;;13.01;64.81;100909.19;5162985;27;20061;-60
2022/11/06 10:57:46;;;;;;;4.57;1.55;;;;;;;12.91;64.42;100912.50;5161775;27;20058;-59
2022/11/06 11:00:15;;;;;;;9.70;1.60;;;;;;;13.07;64.66;100907.44;5159389;27;20467;-59
2022/11/06 11:02:48;;;;;;;10.68;1.63;;;;;;;12.95;64.49;100893.97;5153525;27;20054;-60
2022/11/06 11:05:18;;;;;;;5.50;1.95;;;;;;;12.88;64.51;100902.19;5163980;27;20073;-59
2022/11/06 11:07:48;;;;;;;8.77;1.65;;;;;;;12.86;64.89;100885.41;5167785;27;20483;-60
2022/11/06 11:10:28;;;;;;;5.97;1.30;;;;;;;13.16;65.25;100884.44;5151797;27;20489;-60
2022/11/06 11:12:59;;;;;;;7.10;1.67;;;;;;;13.10;63.83;100888.06;5152297;27;20055;-60
2022/11/06 11:15:44;;;;;;;3.65;1.50;;;;;;;13.02;64.72;100890.09;5141548;27;20118;-60
2022/11/06 11:18:29;;;;;;;2.35;1.40;;;;;;;13.13;65.32;100879.50;5147330;27;20047;-60
2022/11/06 11:21:15;;;;;;;8.10;1.90;;;;;;;13.07;63.94;100880.47;5156101;27;20057;-60
2022/11/06 11:23:43;;;;;;;4.68;1.60;;;;;;;13.06;63.83;100874.25;5164883;27;20049;-60
2022/11/06 11:26:22;;;;;;;6.78;2.60;;;;;;;12.97;64.21;100878.34;5169299;27;20057;-60
2022/11/06 11:28:54;;;;;;;5.00;1.60;;;;;;;12.90;64.51;100866.88;5164515;27;20049;-61
2022/11/06 11:31:29;;;;;;;3.80;1.35;;;;;;;12.85;64.11;100861.38;5151332;27;20054;-61
2022/11/06 11:33:59;;;;;;;5.15;1.55;;;;;;;12.83;64.11;100858.09;5167136;27;20050;-61
2022/11/06 11:36:47;;;;;;;4.07;1.50;;;;;;;12.81;63.92;100854.81;5159407;27;20388;-60
2022/11/06 11:39:16;;;;;;;7.82;1.98;;;;;;;12.79;63.86;100862.31;5149859;27;20050;-60
2022/11/06 11:41:45;;;;;;;3.00;1.52;;;;;;;12.77;63.87;100849.06;5161357;27;20054;-61
2022/11/06 11:44:17;;;;;;;6.47;1.75;;;;;;;12.77;64.07;100859.84;5168762;27;20058;-61
2022/11/06 11:46:47;;;;;;;4.85;1.63;;;;;;;12.77;63.82;100850.94;5156640;27;20058;-60
2022/11/06 11:49:29;;;;;;;5.05;1.58;;;;;;;12.75;64.05;100842.25;5167550;27;20046;-60
2022/11/06 11:52:00;;;;;;;4.78;1.55;;;;;;;12.75;63.97;100842.25;5162959;27;20529;-60
2022/11/06 11:54:31;;;;;;;5.15;2.03;;;;;;;12.76;63.78;100841.22;5163092;27;20050;-60
2022/11/06 11:57:03;;;;;;;5.72;1.55;;;;;;;12.76;63.55;100841.22;5161225;27;20066;-69